sensor_id;sensor_type;location;lat;lon;timestamp;pressure;altitude;pressure_sealevel;temperature;humidity
8320;BME280;4197;42.130;24.746;2023-03-23T00:01:18;99511.88;;;8.95;100.00
8320;BME280;4197;42.130;24.746;2023-03-23T00:03:47;99519.34;;;8.86;100.00
8320;BME280;4197;42.130;24.746;2023-03-23T00:06:15;99512.38;;;8.85;100.00
8320;BME280;4197;42.130;24.746;2023-03-23T00:08:45;99504.16;;;8.81;100.00
8320;BME280;4197;42.130;24.746;2023-03-23T00:11:13;99505.97;;;8.77;100.00
8320;BME280;4197;42.130;24.746;2023-03-23T00:13:42;99509.34;;;8.74;100.00
8320;BME280;4197;42.130;24.746;2023-03-23T00:16:11;99509.44;;;8.78;100.00
8320;BME280;4197;42.130;24.746;2023-03-23T00:18:44;99507.97;;;8.80;100.00
8320;BME280;4197;42.130;24.746;2023-03-23T00:21:11;99507.84;;;8.89;100.00
8320;BME280;4197;42.130;24.746;2023-03-23T00:23:39;99510.88;;;9.00;100.00
8320;BME280;4197;42.130;24.746;2023-03-23T00:26:06;99515.97;;;8.89;100.00
8320;BME280;4197;42.130;24.746;2023-03-23T00:28:34;99508.88;;;8.84;100.00
8320;BME280;4197;42.130;24.746;2023-03-23T00:31:03;99510.00;;;8.83;100.00
8320;BME280;4197;42.130;24.746;2023-03-23T00:33:34;99511.03;;;8.79;100.00
8320;BME280;4197;42.130;24.746;2023-03-23T00:36:04;99506.28;;;8.76;100.00
8320;BME280;4197;42.130;24.746;2023-03-23T00:38:32;99507.78;;;8.73;100.00
8320;BME280;4197;42.130;24.746;2023-03-23T00:40:59;99505.72;;;8.70;100.00
8320;BME280;4197;42.130;24.746;2023-03-23T00:43:29;99499.09;;;8.67;100.00
8320;BME280;4197;42.130;24.746;2023-03-23T00:45:56;99502.94;;;8.66;100.00
8320;BME280;4197;42.130;24.746;2023-03-23T00:48:27;99500.91;;;8.63;100.00
8320;BME280;4197;42.130;24.746;2023-03-23T00:50:56;99488.84;;;8.61;100.00
8320;BME280;4197;42.130;24.746;2023-03-23T00:53:23;99491.09;;;8.59;100.00
8320;BME280;4197;42.130;24.746;2023-03-23T00:55:50;99493.34;;;8.69;100.00
8320;BME280;4197;42.130;24.746;2023-03-23T00:58:18;99488.41;;;8.71;100.00
8320;BME280;4197;42.130;24.746;2023-03-23T01:00:45;99493.03;;;8.70;100.00
8320;BME280;4197;42.130;24.746;2023-03-23T01:03:12;99489.06;;;8.68;100.00
8320;BME280;4197;42.130;24.746;2023-03-23T01:05:45;99489.31;;;8.63;100.00
8320;BME280;4197;42.130;24.746;2023-03-23T01:08:14;99496.50;;;8.59;100.00
8320;BME280;4197;42.130;24.746;2023-03-23T01:10:41;99485.25;;;8.57;100.00
8320;BME280;4197;42.130;24.746;2023-03-23T01:13:09;99483.66;;;8.56;100.00
8320;BME280;4197;42.130;24.746;2023-03-23T01:15:36;99485.03;;;8.62;100.00
8320;BME280;4197;42.130;24.746;2023-03-23T01:18:03;99491.22;;;8.62;100.00
8320;BME280;4197;42.130;24.746;2023-03-23T01:20:31;99487.97;;;8.57;100.00
8320;BME280;4197;42.130;24.746;2023-03-23T01:22:58;99486.28;;;8.52;100.00
8320;BME280;4197;42.130;24.746;2023-03-23T01:25:29;99490.66;;;8.44;100.00
8320;BME280;4197;42.130;24.746;2023-03-23T01:27:57;99495.50;;;8.39;100.00
8320;BME280;4197;42.130;24.746;2023-03-23T01:30:25;99494.22;;;8.36;100.00
8320;BME280;4197;42.130;24.746;2023-03-23T01:32:54;99489.78;;;8.40;100.00
8320;BME280;4197;42.130;24.746;2023-03-23T01:35:21;99487.84;;;8.41;100.00
8320;BME280;4197;42.130;24.746;2023-03-23T01:37:48;99496.03;;;8.32;100.00
8320;BME280;4197;42.130;24.746;2023-03-23T01:40:16;99491.63;;;8.27;100.00
8320;BME280;4197;42.130;24.746;2023-03-23T01:42:44;99497.72;;;8.24;100.00
8320;BME280;4197;42.130;24.746;2023-03-23T01:45:31;99499.75;;;8.27;100.00
8320;BME280;4197;42.130;24.746;2023-03-23T01:48:05;99494.03;;;8.29;100.00
8320;BME280;4197;42.130;24.746;2023-03-23T01:50:37;99504.03;;;8.29;100.00
8320;BME280;4197;42.130;24.746;2023-03-23T01:53:08;99502.81;;;8.26;100.00
8320;BME280;4197;42.130;24.746;2023-03-23T01:55:37;99499.28;;;8.25;100.00
8320;BME280;4197;42.130;24.746;2023-03-23T01:58:08;99499.44;;;8.41;100.00
8320;BME280;4197;42.130;24.746;2023-03-23T02:00:36;99493.38;;;8.57;100.00
8320;BME280;4197;42.130;24.746;2023-03-23T02:03:06;99493.25;;;8.53;100.00
8320;BME280;4197;42.130;24.746;2023-03-23T02:05:39;99501.69;;;8.52;100.00
8320;BME280;4197;42.130;24.746;2023-03-23T02:08:08;99495.84;;;8.49;100.00
8320;BME280;4197;42.130;24.746;2023-03-23T02:10:37;99497.88;;;8.53;100.00
8320;BME280;4197;42.130;24.746;2023-03-23T02:13:07;99495.63;;;8.55;100.00
8320;BME280;4197;42.130;24.746;2023-03-23T02:18:35;99503.50;;;8.47;100.00
8320;BME280;4197;42.130;24.746;2023-03-23T02:24:35;99506.28;;;8.76;100.00
8320;BME280;4197;42.130;24.746;2023-03-23T02:27:08;99512.28;;;8.69;100.00
8320;BME280;4197;42.130;24.746;2023-03-23T02:32:55;99505.31;;;8.68;100.00
8320;BME280;4197;42.130;24.746;2023-03-23T02:35:30;99506.66;;;8.49;100.00
8320;BME280;4197;42.130;24.746;2023-03-23T02:38:02;99497.75;;;8.49;100.00
8320;BME280;4197;42.130;24.746;2023-03-23T02:40:37;99502.50;;;8.40;100.00
8320;BME280;4197;42.130;24.746;2023-03-23T02:43:07;99502.56;;;8.31;100.00
8320;BME280;4197;42.130;24.746;2023-03-23T02:45:36;99502.22;;;8.33;100.00
8320;BME280;4197;42.130;24.746;2023-03-23T02:48:05;99505.59;;;8.30;100.00
8320;BME280;4197;42.130;24.746;2023-03-23T02:50:35;99511.13;;;8.33;100.00
8320;BME280;4197;42.130;24.746;2023-03-23T02:53:07;99520.47;;;8.36;100.00
8320;BME280;4197;42.130;24.746;2023-03-23T02:55:38;99512.94;;;8.29;100.00
8320;BME280;4197;42.130;24.746;2023-03-23T02:58:07;99514.03;;;8.28;100.00
8320;BME280;4197;42.130;24.746;2023-03-23T03:00:35;99514.72;;;8.25;100.00
8320;BME280;4197;42.130;24.746;2023-03-23T03:03:04;99515.16;;;8.27;100.00
8320;BME280;4197;42.130;24.746;2023-03-23T03:05:39;99515.50;;;8.25;100.00
8320;BME280;4197;42.130;24.746;2023-03-23T03:08:16;99516.72;;;8.28;100.00
8320;BME280;4197;42.130;24.746;2023-03-23T03:10:50;99521.94;;;8.33;100.00
8320;BME280;4197;42.130;24.746;2023-03-23T03:13:25;99521.81;;;8.30;100.00
8320;BME280;4197;42.130;24.746;2023-03-23T03:15:58;99525.19;;;8.26;100.00
8320;BME280;4197;42.130;24.746;2023-03-23T03:18:28;99528.56;;;8.23;100.00
8320;BME280;4197;42.130;24.746;2023-03-23T03:21:01;99523.69;;;8.17;100.00
8320;BME280;4197;42.130;24.746;2023-03-23T03:23:32;99533.06;;;8.19;100.00
8320;BME280;4197;42.130;24.746;2023-03-23T03:26:02;99531.13;;;8.08;100.00
8320;BME280;4197;42.130;24.746;2023-03-23T03:28:32;99531.13;;;8.08;100.00
8320;BME280;4197;42.130;24.746;2023-03-23T03:31:02;99527.50;;;8.03;100.00
8320;BME280;4197;42.130;24.746;2023-03-23T03:33:30;99525.25;;;8.05;100.00
8320;BME280;4197;42.130;24.746;2023-03-23T03:36:02;99529.19;;;7.96;100.00
8320;BME280;4197;42.130;24.746;2023-03-23T03:38:41;99542.50;;;8.01;100.00
8320;BME280;4197;42.130;24.746;2023-03-23T03:41:08;99550.22;;;7.90;100.00
8320;BME280;4197;42.130;24.746;2023-03-23T03:43:35;99545.22;;;7.80;100.00
8320;BME280;4197;42.130;24.746;2023-03-23T03:46:02;99543.97;;;7.77;100.00
8320;BME280;4197;42.130;24.746;2023-03-23T03:48:29;99549.00;;;7.67;100.00
8320;BME280;4197;42.130;24.746;2023-03-23T03:50:56;99534.03;;;7.57;100.00
8320;BME280;4197;42.130;24.746;2023-03-23T03:53:27;99539.28;;;7.53;100.00
8320;BME280;4197;42.130;24.746;2023-03-23T03:55:54;99539.53;;;7.60;100.00
8320;BME280;4197;42.130;24.746;2023-03-23T03:58:25;99552.56;;;7.58;100.00
8320;BME280;4197;42.130;24.746;2023-03-23T04:00:57;99546.06;;;7.59;100.00
8320;BME280;4197;42.130;24.746;2023-03-23T04:03:25;99548.34;;;7.70;100.00
8320;BME280;4197;42.130;24.746;2023-03-23T04:05:53;99549.00;;;7.67;100.00
8320;BME280;4197;42.130;24.746;2023-03-23T04:08:21;99549.53;;;7.60;100.00
8320;BME280;4197;42.130;24.746;2023-03-23T04:10:49;99555.72;;;7.60;100.00
8320;BME280;4197;42.130;24.746;2023-03-23T04:13:17;99550.44;;;7.64;100.00
8320;BME280;4197;42.130;24.746;2023-03-23T04:15:45;99544.94;;;7.60;100.00
8320;BME280;4197;42.130;24.746;2023-03-23T04:18:12;99548.50;;;7.52;100.00
8320;BME280;4197;42.130;24.746;2023-03-23T04:20:41;99548.75;;;7.59;100.00
8320;BME280;4197;42.130;24.746;2023-03-23T04:23:08;99550.22;;;7.57;100.00
8320;BME280;4197;42.130;24.746;2023-03-23T04:25:35;99549.34;;;7.44;100.00
8320;BME280;4197;42.130;24.746;2023-03-23T04:28:04;99556.78;;;7.47;100.00
8320;BME280;4197;42.130;24.746;2023-03-23T04:30:31;99554.41;;;7.67;100.00
8320;BME280;4197;42.130;24.746;2023-03-23T04:32:58;99562.19;;;7.68;100.00
8320;BME280;4197;42.130;24.746;2023-03-23T04:35:28;99557.56;;;7.69;100.00
8320;BME280;4197;42.130;24.746;2023-03-23T04:37:59;99559.88;;;7.58;100.00
8320;BME280;4197;42.130;24.746;2023-03-23T04:40:26;99553.88;;;7.52;100.00
8320;BME280;4197;42.130;24.746;2023-03-23T04:42:54;99555.34;;;7.50;100.00
8320;BME280;4197;42.130;24.746;2023-03-23T04:45:24;99560.19;;;7.56;100.00
8320;BME280;4197;42.130;24.746;2023-03-23T04:47:52;99559.41;;;7.56;100.00
8320;BME280;4197;42.130;24.746;2023-03-23T04:50:24;99561.13;;;7.60;100.00
8320;BME280;4197;42.130;24.746;2023-03-23T04:52:53;99567.22;;;7.70;100.00
8320;BME280;4197;42.130;24.746;2023-03-23T04:55:23;99562.69;;;7.62;100.00
8320;BME280;4197;42.130;24.746;2023-03-23T04:57:51;99562.19;;;7.68;100.00
8320;BME280;4197;42.130;24.746;2023-03-23T05:00:19;99568.16;;;7.74;100.00
8320;BME280;4197;42.130;24.746;2023-03-23T05:02:48;99562.97;;;7.69;100.00
8320;BME280;4197;42.130;24.746;2023-03-23T05:05:19;99569.03;;;7.66;100.00
8320;BME280;4197;42.130;24.746;2023-03-23T05:07:46;99560.00;;;7.62;100.00
8320;BME280;4197;42.130;24.746;2023-03-23T05:10:15;99561.25;;;7.64;100.00
8320;BME280;4197;42.130;24.746;2023-03-23T05:12:43;99568.25;;;7.65;100.00
8320;BME280;4197;42.130;24.746;2023-03-23T05:15:12;99563.34;;;7.58;100.00
8320;BME280;4197;42.130;24.746;2023-03-23T05:17:41;99566.72;;;7.55;100.00
8320;BME280;4197;42.130;24.746;2023-03-23T05:20:13;99574.63;;;7.60;100.00
8320;BME280;4197;42.130;24.746;2023-03-23T05:22:44;99571.72;;;7.66;100.00
8320;BME280;4197;42.130;24.746;2023-03-23T05:25:13;99568.09;;;7.62;100.00
8320;BME280;4197;42.130;24.746;2023-03-23T05:27:41;99575.88;;;7.63;100.00
8320;BME280;4197;42.130;24.746;2023-03-23T05:30:09;99577.59;;;7.68;100.00
8320;BME280;4197;42.130;24.746;2023-03-23T05:32:37;99586.78;;;7.67;100.00
8320;BME280;4197;42.130;24.746;2023-03-23T05:35:04;99587.72;;;7.71;100.00
8320;BME280;4197;42.130;24.746;2023-03-23T05:37:33;99585.13;;;7.74;100.00
8320;BME280;4197;42.130;24.746;2023-03-23T05:40:00;99589.56;;;7.79;100.00
8320;BME280;4197;42.130;24.746;2023-03-23T05:42:32;99598.75;;;7.78;100.00
8320;BME280;4197;42.130;24.746;2023-03-23T05:45:00;99598.75;;;7.78;100.00
8320;BME280;4197;42.130;24.746;2023-03-23T05:47:27;99604.03;;;7.95;100.00
8320;BME280;4197;42.130;24.746;2023-03-23T05:49:55;99612.84;;;8.17;100.00
8320;BME280;4197;42.130;24.746;2023-03-23T05:52:23;99602.75;;;8.26;100.00
8320;BME280;4197;42.130;24.746;2023-03-23T05:54:52;99607.69;;;8.24;100.00
8320;BME280;4197;42.130;24.746;2023-03-23T05:57:20;99613.31;;;8.31;100.00
8320;BME280;4197;42.130;24.746;2023-03-23T05:59:48;99609.34;;;8.49;100.00
8320;BME280;4197;42.130;24.746;2023-03-23T06:02:15;99621.16;;;8.45;100.00
8320;BME280;4197;42.130;24.746;2023-03-23T06:04:43;99626.25;;;8.46;100.00
8320;BME280;4197;42.130;24.746;2023-03-23T06:07:10;99625.44;;;8.46;100.00
8320;BME280;4197;42.130;24.746;2023-03-23T06:09:40;99630.13;;;8.37;100.00
8320;BME280;4197;42.130;24.746;2023-03-23T06:12:09;99630.66;;;8.30;100.00
8320;BME280;4197;42.130;24.746;2023-03-23T06:14:37;99631.81;;;8.29;100.00
8320;BME280;4197;42.130;24.746;2023-03-23T06:17:04;99642.19;;;8.39;100.00
8320;BME280;4197;42.130;24.746;2023-03-23T06:19:31;99643.91;;;8.44;100.00
8320;BME280;4197;42.130;24.746;2023-03-23T06:21:59;99633.28;;;8.84;100.00
8320;BME280;4197;42.130;24.746;2023-03-23T06:24:27;99629.44;;;8.85;100.00
8320;BME280;4197;42.130;24.746;2023-03-23T06:26:54;99629.09;;;8.99;100.00
8320;BME280;4197;42.130;24.746;2023-03-23T06:29:23;99633.94;;;9.18;100.00
8320;BME280;4197;42.130;24.746;2023-03-23T06:31:54;99631.06;;;9.39;100.00
8320;BME280;4197;42.130;24.746;2023-03-23T06:34:22;99640.75;;;9.52;100.00
8320;BME280;4197;42.130;24.746;2023-03-23T06:36:49;99645.28;;;9.48;100.00
8320;BME280;4197;42.130;24.746;2023-03-23T06:39:16;99642.00;;;9.55;100.00
8320;BME280;4197;42.130;24.746;2023-03-23T06:41:43;99639.06;;;9.60;100.00
8320;BME280;4197;42.130;24.746;2023-03-23T06:44:11;99647.00;;;9.41;100.00
8320;BME280;4197;42.130;24.746;2023-03-23T06:46:40;99653.78;;;9.34;100.00
8320;BME280;4197;42.130;24.746;2023-03-23T06:49:08;99655.44;;;9.39;100.00
8320;BME280;4197;42.130;24.746;2023-03-23T06:51:36;99654.09;;;9.45;100.00
8320;BME280;4197;42.130;24.746;2023-03-23T06:54:04;99647.13;;;9.72;100.00
8320;BME280;4197;42.130;24.746;2023-03-23T06:56:31;99655.25;;;9.72;100.00
8320;BME280;4197;42.130;24.746;2023-03-23T06:58:58;99646.88;;;9.90;100.00
8320;BME280;4197;42.130;24.746;2023-03-23T07:01:26;99656.09;;;10.01;100.00
8320;BME280;4197;42.130;24.746;2023-03-23T07:03:55;99649.78;;;9.97;100.00
8320;BME280;4197;42.130;24.746;2023-03-23T07:06:23;99660.16;;;9.95;100.00
8320;BME280;4197;42.130;24.746;2023-03-23T07:08:50;99657.72;;;9.77;100.00
8320;BME280;4197;42.130;24.746;2023-03-23T07:11:18;99664.75;;;9.78;100.00
8320;BME280;4197;42.130;24.746;2023-03-23T07:13:45;99664.16;;;9.85;100.00
8320;BME280;4197;42.130;24.746;2023-03-23T07:16:14;99660.22;;;9.82;100.00
8320;BME280;4197;42.130;24.746;2023-03-23T07:18:41;99660.22;;;9.82;100.00
8320;BME280;4197;42.130;24.746;2023-03-23T07:21:09;99659.50;;;9.86;100.00
8320;BME280;4197;42.130;24.746;2023-03-23T07:23:36;99666.06;;;9.85;100.00
8320;BME280;4197;42.130;24.746;2023-03-23T07:26:04;99656.06;;;9.73;100.00
8320;BME280;4197;42.130;24.746;2023-03-23T07:28:32;99655.47;;;9.79;100.00
8320;BME280;4197;42.130;24.746;2023-03-23T07:30:59;99662.78;;;9.91;100.00
8320;BME280;4197;42.130;24.746;2023-03-23T07:33:26;99662.47;;;9.80;100.00
8320;BME280;4197;42.130;24.746;2023-03-23T07:35:53;99663.94;;;9.78;100.00
8320;BME280;4197;42.130;24.746;2023-03-23T07:38:22;99667.19;;;9.83;100.00
8320;BME280;4197;42.130;24.746;2023-03-23T07:40:50;99665.03;;;9.89;100.00
8320;BME280;4197;42.130;24.746;2023-03-23T07:43:18;99667.31;;;9.87;100.00
8320;BME280;4197;42.130;24.746;2023-03-23T07:45:46;99659.53;;;10.14;100.00
8320;BME280;4197;42.130;24.746;2023-03-23T07:48:13;99672.28;;;10.41;100.00
8320;BME280;4197;42.130;24.746;2023-03-23T07:50:41;99667.78;;;10.61;100.00
8320;BME280;4197;42.130;24.746;2023-03-23T07:53:07;99672.88;;;10.79;100.00
8320;BME280;4197;42.130;24.746;2023-03-23T07:55:38;99666.22;;;10.76;100.00
8320;BME280;4197;42.130;24.746;2023-03-23T07:58:05;99675.69;;;10.98;100.00
8320;BME280;4197;42.130;24.746;2023-03-23T08:00:32;99678.03;;;11.00;100.00
8320;BME280;4197;42.130;24.746;2023-03-23T08:03:00;99679.84;;;11.27;100.00
8320;BME280;4197;42.130;24.746;2023-03-23T08:05:28;99680.47;;;11.36;100.00
8320;BME280;4197;42.130;24.746;2023-03-23T08:07:55;99673.59;;;11.58;100.00
8320;BME280;4197;42.130;24.746;2023-03-23T08:10:23;99683.47;;;11.67;100.00
8320;BME280;4197;42.130;24.746;2023-03-23T08:12:53;99679.06;;;11.27;100.00
8320;BME280;4197;42.130;24.746;2023-03-23T08:15:21;99679.50;;;11.29;100.00
8320;BME280;4197;42.130;24.746;2023-03-23T08:17:48;99678.97;;;11.39;100.00
8320;BME280;4197;42.130;24.746;2023-03-23T08:20:17;99675.66;;;11.65;100.00
8320;BME280;4197;42.130;24.746;2023-03-23T08:22:51;99671.16;;;11.73;100.00
8320;BME280;4197;42.130;24.746;2023-03-23T08:25:19;99673.94;;;11.92;100.00
8320;BME280;4197;42.130;24.746;2023-03-23T08:27:46;99675.50;;;12.13;100.00
8320;BME280;4197;42.130;24.746;2023-03-23T08:30:16;99669.75;;;12.37;100.00
8320;BME280;4197;42.130;24.746;2023-03-23T08:32:45;99677.53;;;12.58;100.00
8320;BME280;4197;42.130;24.746;2023-03-23T08:35:12;99667.78;;;12.57;100.00
8320;BME280;4197;42.130;24.746;2023-03-23T08:37:40;99661.78;;;12.71;100.00
8320;BME280;4197;42.130;24.746;2023-03-23T08:40:10;99670.50;;;12.80;100.00
8320;BME280;4197;42.130;24.746;2023-03-23T08:42:38;99658.22;;;12.90;100.00
8320;BME280;4197;42.130;24.746;2023-03-23T08:45:08;99665.59;;;13.12;100.00
8320;BME280;4197;42.130;24.746;2023-03-23T08:47:38;99652.63;;;13.29;100.00
8320;BME280;4197;42.130;24.746;2023-03-23T08:50:08;99663.25;;;13.37;100.00
8320;BME280;4197;42.130;24.746;2023-03-23T08:52:36;99662.72;;;13.55;100.00
8320;BME280;4197;42.130;24.746;2023-03-23T08:55:04;99668.63;;;13.60;100.00
8320;BME280;4197;42.130;24.746;2023-03-23T08:57:35;99670.69;;;13.67;100.00
8320;BME280;4197;42.130;24.746;2023-03-23T09:00:03;99673.69;;;13.58;100.00
8320;BME280;4197;42.130;24.746;2023-03-23T09:02:41;99673.41;;;13.67;100.00
8320;BME280;4197;42.130;24.746;2023-03-23T09:05:08;99670.72;;;13.71;100.00
8320;BME280;4197;42.130;24.746;2023-03-23T09:07:37;99665.91;;;13.60;100.00
8320;BME280;4197;42.130;24.746;2023-03-23T09:10:05;99667.47;;;13.58;100.00
8320;BME280;4197;42.130;24.746;2023-03-23T09:12:32;99668.09;;;13.78;100.00
8320;BME280;4197;42.130;24.746;2023-03-23T09:15:00;99666.91;;;13.75;100.00
8320;BME280;4197;42.130;24.746;2023-03-23T09:17:28;99667.81;;;13.87;100.00
8320;BME280;4197;42.130;24.746;2023-03-23T09:19:58;99661.19;;;13.88;100.00
8320;BME280;4197;42.130;24.746;2023-03-23T09:22:25;99664.19;;;14.09;100.00
8320;BME280;4197;42.130;24.746;2023-03-23T09:24:53;99669.19;;;14.37;100.00
8320;BME280;4197;42.130;24.746;2023-03-23T09:27:20;99652.44;;;14.80;100.00
8320;BME280;4197;42.130;24.746;2023-03-23T09:29:47;99659.78;;;15.20;100.00
8320;BME280;4197;42.130;24.746;2023-03-23T09:32:15;99664.59;;;15.37;100.00
8320;BME280;4197;42.130;24.746;2023-03-23T09:34:43;99656.22;;;15.12;100.00
8320;BME280;4197;42.130;24.746;2023-03-23T09:37:11;99656.94;;;15.02;100.00
8320;BME280;4197;42.130;24.746;2023-03-23T09:39:40;99655.00;;;14.58;100.00
8320;BME280;4197;42.130;24.746;2023-03-23T09:42:18;99649.38;;;14.44;98.39
8320;BME280;4197;42.130;24.746;2023-03-23T09:45:00;99651.66;;;14.79;99.12
8320;BME280;4197;42.130;24.746;2023-03-23T09:47:36;99648.44;;;15.14;98.37
8320;BME280;4197;42.130;24.746;2023-03-23T09:50:09;99645.44;;;14.82;98.04
8320;BME280;4197;42.130;24.746;2023-03-23T09:52:42;99645.38;;;14.71;98.57
8320;BME280;4197;42.130;24.746;2023-03-23T09:55:13;99647.75;;;14.36;98.34
8320;BME280;4197;42.130;24.746;2023-03-23T09:57:47;99644.69;;;14.44;98.54
8320;BME280;4197;42.130;24.746;2023-03-23T10:00:21;99641.53;;;14.80;97.86
8320;BME280;4197;42.130;24.746;2023-03-23T10:02:55;99644.38;;;14.94;95.51
8320;BME280;4197;42.130;24.746;2023-03-23T10:05:31;99638.53;;;14.95;94.11
8320;BME280;4197;42.130;24.746;2023-03-23T10:08:02;99638.53;;;14.92;93.73
8320;BME280;4197;42.130;24.746;2023-03-23T10:10:41;99641.91;;;14.75;90.31
8320;BME280;4197;42.130;24.746;2023-03-23T10:13:18;99643.97;;;14.88;88.55
8320;BME280;4197;42.130;24.746;2023-03-23T10:15:47;99633.28;;;15.24;81.26
8320;BME280;4197;42.130;24.746;2023-03-23T10:18:19;99630.75;;;15.60;80.08
8320;BME280;4197;42.130;24.746;2023-03-23T10:20:51;99629.72;;;15.86;79.35
8320;BME280;4197;42.130;24.746;2023-03-23T10:23:45;99633.63;;;15.85;73.07
8320;BME280;4197;42.130;24.746;2023-03-23T10:26:26;99636.78;;;15.98;66.58
8320;BME280;4197;42.130;24.746;2023-03-23T10:28:58;99631.69;;;15.93;64.66
8320;BME280;4197;42.130;24.746;2023-03-23T10:31:30;99626.03;;;15.57;65.52
8320;BME280;4197;42.130;24.746;2023-03-23T10:34:03;99637.31;;;15.45;65.03
8320;BME280;4197;42.130;24.746;2023-03-23T10:36:36;99630.59;;;15.31;64.48
8320;BME280;4197;42.130;24.746;2023-03-23T10:39:10;99623.16;;;15.32;64.61
8320;BME280;4197;42.130;24.746;2023-03-23T10:41:40;99619.72;;;15.38;64.40
8320;BME280;4197;42.130;24.746;2023-03-23T10:44:10;99619.38;;;15.47;64.10
8320;BME280;4197;42.130;24.746;2023-03-23T10:46:43;99614.72;;;15.58;63.50
8320;BME280;4197;42.130;24.746;2023-03-23T10:49:17;99615.22;;;15.71;64.01
8320;BME280;4197;42.130;24.746;2023-03-23T10:51:49;99609.44;;;16.01;63.82
8320;BME280;4197;42.130;24.746;2023-03-23T10:54:31;99597.84;;;16.69;60.93
8320;BME280;4197;42.130;24.746;2023-03-23T10:56:59;99604.88;;;16.99;60.99
8320;BME280;4197;42.130;24.746;2023-03-23T10:59:28;99604.41;;;17.43;59.50
8320;BME280;4197;42.130;24.746;2023-03-23T11:01:58;99605.50;;;17.64;57.23
8320;BME280;4197;42.130;24.746;2023-03-23T11:04:28;99605.09;;;17.69;58.77
8320;BME280;4197;42.130;24.746;2023-03-23T11:06:59;99599.94;;;17.89;59.72
8320;BME280;4197;42.130;24.746;2023-03-23T11:09:36;99588.28;;;18.37;55.50
8320;BME280;4197;42.130;24.746;2023-03-23T11:12:04;99598.25;;;18.09;56.12
8320;BME280;4197;42.130;24.746;2023-03-23T11:14:34;99592.06;;;17.98;56.33
8320;BME280;4197;42.130;24.746;2023-03-23T11:17:05;99587.41;;;17.84;56.57
8320;BME280;4197;42.130;24.746;2023-03-23T11:19:46;99591.38;;;17.79;55.94
8320;BME280;4197;42.130;24.746;2023-03-23T11:22:19;99593.88;;;17.20;55.94
8320;BME280;4197;42.130;24.746;2023-03-23T11:24:53;99592.31;;;17.19;55.73
8320;BME280;4197;42.130;24.746;2023-03-23T11:27:21;99586.88;;;17.15;55.36
8320;BME280;4197;42.130;24.746;2023-03-23T11:29:51;99589.22;;;16.85;56.55
8320;BME280;4197;42.130;24.746;2023-03-23T11:32:23;99590.00;;;16.64;57.12
8320;BME280;4197;42.130;24.746;2023-03-23T11:34:54;99587.25;;;16.46;58.26
8320;BME280;4197;42.130;24.746;2023-03-23T11:37:28;99587.28;;;16.75;57.89
8320;BME280;4197;42.130;24.746;2023-03-23T11:40:00;99588.41;;;16.31;58.10
8320;BME280;4197;42.130;24.746;2023-03-23T11:42:37;99583.34;;;16.65;58.46
8320;BME280;4197;42.130;24.746;2023-03-23T11:45:18;99584.50;;;16.71;58.69
8320;BME280;4197;42.130;24.746;2023-03-23T11:47:55;99580.66;;;16.83;59.03
8320;BME280;4197;42.130;24.746;2023-03-23T11:50:26;99583.75;;;17.03;58.81
8320;BME280;4197;42.130;24.746;2023-03-23T11:53:00;99580.19;;;17.16;58.22
8320;BME280;4197;42.130;24.746;2023-03-23T11:55:34;99578.25;;;17.13;62.31
8320;BME280;4197;42.130;24.746;2023-03-23T11:58:11;99584.53;;;16.60;64.53
8320;BME280;4197;42.130;24.746;2023-03-23T12:00:44;99572.78;;;16.38;66.64
8320;BME280;4197;42.130;24.746;2023-03-23T12:03:25;99577.47;;;16.20;67.79
8320;BME280;4197;42.130;24.746;2023-03-23T12:06:02;99574.31;;;16.14;69.04
8320;BME280;4197;42.130;24.746;2023-03-23T12:08:46;99576.25;;;16.03;68.85
8320;BME280;4197;42.130;24.746;2023-03-23T12:11:23;99564.47;;;15.84;69.66
8320;BME280;4197;42.130;24.746;2023-03-23T12:14:01;99571.16;;;15.98;69.55
8320;BME280;4197;42.130;24.746;2023-03-23T12:16:49;99566.09;;;16.18;68.85
8320;BME280;4197;42.130;24.746;2023-03-23T12:19:25;99566.91;;;16.22;68.10
8320;BME280;4197;42.130;24.746;2023-03-23T12:22:04;99563.00;;;16.23;68.15
8320;BME280;4197;42.130;24.746;2023-03-23T12:24:52;99559.00;;;15.84;68.15
8320;BME280;4197;42.130;24.746;2023-03-23T12:27:27;99568.03;;;15.96;67.69
8320;BME280;4197;42.130;24.746;2023-03-23T12:30:07;99562.91;;;15.87;68.10
8320;BME280;4197;42.130;24.746;2023-03-23T12:32:44;99560.97;;;15.80;67.42
8320;BME280;4197;42.130;24.746;2023-03-23T12:35:33;99555.91;;;15.90;67.55
8320;BME280;4197;42.130;24.746;2023-03-23T12:38:15;99562.63;;;16.28;65.58
8320;BME280;4197;42.130;24.746;2023-03-23T12:41:00;99561.84;;;16.31;64.96
8320;BME280;4197;42.130;24.746;2023-03-23T12:43:38;99567.31;;;16.27;65.25
8320;BME280;4197;42.130;24.746;2023-03-23T12:49:22;99561.06;;;16.31;64.18
8320;BME280;4197;42.130;24.746;2023-03-23T12:51:56;99557.50;;;16.26;64.55
8320;BME280;4197;42.130;24.746;2023-03-23T12:54:32;99562.25;;;16.30;64.07
8320;BME280;4197;42.130;24.746;2023-03-23T12:57:06;99552.84;;;16.16;65.25
8320;BME280;4197;42.130;24.746;2023-03-23T12:59:42;99558.69;;;16.08;65.66
8320;BME280;4197;42.130;24.746;2023-03-23T13:02:18;99553.63;;;16.24;65.02
8320;BME280;4197;42.130;24.746;2023-03-23T13:04:50;99554.41;;;16.49;63.29
8320;BME280;4197;42.130;24.746;2023-03-23T13:07:22;99548.53;;;16.72;63.20
8320;BME280;4197;42.130;24.746;2023-03-23T13:09:58;99547.75;;;16.65;63.42
8320;BME280;4197;42.130;24.746;2023-03-23T13:12:30;99543.47;;;16.75;62.34
8320;BME280;4197;42.130;24.746;2023-03-23T13:15:04;99543.44;;;16.46;62.71
8320;BME280;4197;42.130;24.746;2023-03-23T13:17:44;99552.06;;;16.62;61.79
8320;BME280;4197;42.130;24.746;2023-03-23T13:23:10;99547.75;;;16.50;62.92
8320;BME280;4197;42.130;24.746;2023-03-23T13:25:48;99550.50;;;16.50;62.69
8320;BME280;4197;42.130;24.746;2023-03-23T13:28:17;99538.41;;;16.41;63.27
8320;BME280;4197;42.130;24.746;2023-03-23T13:31:11;99542.69;;;16.67;62.68
8320;BME280;4197;42.130;24.746;2023-03-23T13:33:45;99546.59;;;16.62;63.11
8320;BME280;4197;42.130;24.746;2023-03-23T13:36:14;99549.34;;;16.66;61.45
8320;BME280;4197;42.130;24.746;2023-03-23T13:38:46;99545.03;;;16.40;62.32
8320;BME280;4197;42.130;24.746;2023-03-23T13:41:16;99542.28;;;16.54;63.90
8320;BME280;4197;42.130;24.746;2023-03-23T13:43:44;99547.75;;;16.86;63.40